sensor_id;sensor_type;location;lat;lon;timestamp;temperature;humidity
65396;HTU21D;52004;45.136;39.010;2023-03-14T00:01:48;3.90;65.07
65396;HTU21D;52004;45.136;39.010;2023-03-14T00:04:14;3.92;65.08
65396;HTU21D;52004;45.136;39.010;2023-03-14T00:06:40;3.93;65.07
65396;HTU21D;52004;45.136;39.010;2023-03-14T00:09:06;3.97;65.09
65396;HTU21D;52004;45.136;39.010;2023-03-14T00:11:32;3.99;65.08
65396;HTU21D;52004;45.136;39.010;2023-03-14T00:13:57;4.01;65.07
65396;HTU21D;52004;45.136;39.010;2023-03-14T00:16:25;4.03;65.06
65396;HTU21D;52004;45.136;39.010;2023-03-14T00:18:51;4.08;65.04
65396;HTU21D;52004;45.136;39.010;2023-03-14T00:21:19;4.10;65.01
65396;HTU21D;52004;45.136;39.010;2023-03-14T00:23:44;4.14;64.95
65396;HTU21D;52004;45.136;39.010;2023-03-14T00:26:12;4.14;64.95
65396;HTU21D;52004;45.136;39.010;2023-03-14T00:28:38;4.13;64.98
65396;HTU21D;52004;45.136;39.010;2023-03-14T00:31:08;4.14;65.02
65396;HTU21D;52004;45.136;39.010;2023-03-14T00:33:34;4.14;65.06
65396;HTU21D;52004;45.136;39.010;2023-03-14T00:36:03;4.18;65.05
65396;HTU21D;52004;45.136;39.010;2023-03-14T00:38:30;4.18;65.04
65396;HTU21D;52004;45.136;39.010;2023-03-14T00:40:57;4.16;65.13
65396;HTU21D;52004;45.136;39.010;2023-03-14T00:43:23;4.20;65.11
65396;HTU21D;52004;45.136;39.010;2023-03-14T00:45:49;4.21;65.08
65396;HTU21D;52004;45.136;39.010;2023-03-14T00:48:15;4.24;65.04
65396;HTU21D;52004;45.136;39.010;2023-03-14T00:50:41;4.28;65.01
65396;HTU21D;52004;45.136;39.010;2023-03-14T00:53:07;4.29;65.00
65396;HTU21D;52004;45.136;39.010;2023-03-14T00:55:35;4.29;64.97
65396;HTU21D;52004;45.136;39.010;2023-03-14T00:58:01;4.30;64.99
65396;HTU21D;52004;45.136;39.010;2023-03-14T01:00:27;4.31;65.02
65396;HTU21D;52004;45.136;39.010;2023-03-14T01:02:53;4.27;65.01
65396;HTU21D;52004;45.136;39.010;2023-03-14T01:05:18;4.26;65.07
65396;HTU21D;52004;45.136;39.010;2023-03-14T01:07:44;4.23;65.12
65396;HTU21D;52004;45.136;39.010;2023-03-14T01:10:10;4.23;65.15
65396;HTU21D;52004;45.136;39.010;2023-03-14T01:12:36;4.24;65.13
65396;HTU21D;52004;45.136;39.010;2023-03-14T01:15:02;4.23;65.11
65396;HTU21D;52004;45.136;39.010;2023-03-14T01:17:28;4.21;65.17
65396;HTU21D;52004;45.136;39.010;2023-03-14T01:19:56;0.00;65.24
65396;HTU21D;52004;45.136;39.010;2023-03-14T01:22:22;4.17;65.27
65396;HTU21D;52004;45.136;39.010;2023-03-14T01:24:48;4.15;65.30
65396;HTU21D;52004;45.136;39.010;2023-03-14T01:27:14;4.14;65.30
65396;HTU21D;52004;45.136;39.010;2023-03-14T01:29:40;4.13;65.30
65396;HTU21D;52004;45.136;39.010;2023-03-14T01:32:06;4.09;65.33
65396;HTU21D;52004;45.136;39.010;2023-03-14T01:34:32;4.09;65.35
65396;HTU21D;52004;45.136;39.010;2023-03-14T01:36:58;4.09;65.38
65396;HTU21D;52004;45.136;39.010;2023-03-14T01:39:24;4.05;65.46
65396;HTU21D;52004;45.136;39.010;2023-03-14T01:41:50;4.02;65.53
65396;HTU21D;52004;45.136;39.010;2023-03-14T01:44:15;4.03;65.57
65396;HTU21D;52004;45.136;39.010;2023-03-14T01:46:44;4.01;65.57
65396;HTU21D;52004;45.136;39.010;2023-03-14T01:49:20;3.99;65.62
65396;HTU21D;52004;45.136;39.010;2023-03-14T01:52:00;3.99;65.63
65396;HTU21D;52004;45.136;39.010;2023-03-14T01:57:30;4.01;65.61
65396;HTU21D;52004;45.136;39.010;2023-03-14T02:00:01;4.04;65.58
65396;HTU21D;52004;45.136;39.010;2023-03-14T02:02:41;4.06;65.56
65396;HTU21D;52004;45.136;39.010;2023-03-14T02:05:10;4.07;65.52
65396;HTU21D;52004;45.136;39.010;2023-03-14T02:07:48;4.08;65.48
65396;HTU21D;52004;45.136;39.010;2023-03-14T02:10:21;4.09;65.49
65396;HTU21D;52004;45.136;39.010;2023-03-14T02:12:48;4.09;65.49
65396;HTU21D;52004;45.136;39.010;2023-03-14T02:15:28;4.08;65.53
65396;HTU21D;52004;45.136;39.010;2023-03-14T02:17:58;4.07;65.56
65396;HTU21D;52004;45.136;39.010;2023-03-14T02:23:15;4.08;65.62
65396;HTU21D;52004;45.136;39.010;2023-03-14T02:25:54;4.06;65.65
65396;HTU21D;52004;45.136;39.010;2023-03-14T02:28:23;4.07;65.72
65396;HTU21D;52004;45.136;39.010;2023-03-14T02:30:53;4.07;65.72
65396;HTU21D;52004;45.136;39.010;2023-03-14T02:33:20;4.08;65.69
65396;HTU21D;52004;45.136;39.010;2023-03-14T02:35:48;4.08;65.69
65396;HTU21D;52004;45.136;39.010;2023-03-14T02:41:03;4.10;65.72
65396;HTU21D;52004;45.136;39.010;2023-03-14T02:43:32;4.08;65.73
65396;HTU21D;52004;45.136;39.010;2023-03-14T02:46:01;4.09;65.71
65396;HTU21D;52004;45.136;39.010;2023-03-14T02:48:30;4.08;65.66
65396;HTU21D;52004;45.136;39.010;2023-03-14T02:50:57;0.00;65.62
65396;HTU21D;52004;45.136;39.010;2023-03-14T02:53:26;4.03;65.67
65396;HTU21D;52004;45.136;39.010;2023-03-14T02:55:54;4.03;65.67
65396;HTU21D;52004;45.136;39.010;2023-03-14T02:58:22;4.01;65.72
65396;HTU21D;52004;45.136;39.010;2023-03-14T03:00:53;3.97;65.78
65396;HTU21D;52004;45.136;39.010;2023-03-14T03:03:19;3.94;65.85
65396;HTU21D;52004;45.136;39.010;2023-03-14T03:05:48;3.91;65.96
65396;HTU21D;52004;45.136;39.010;2023-03-14T03:08:14;3.90;66.07
65396;HTU21D;52004;45.136;39.010;2023-03-14T03:10:40;3.89;66.03
65396;HTU21D;52004;45.136;39.010;2023-03-14T03:13:06;3.89;65.96
65396;HTU21D;52004;45.136;39.010;2023-03-14T03:15:32;3.91;65.90
65396;HTU21D;52004;45.136;39.010;2023-03-14T03:17:58;3.91;65.85
65396;HTU21D;52004;45.136;39.010;2023-03-14T03:20:24;3.92;65.82
65396;HTU21D;52004;45.136;39.010;2023-03-14T03:22:50;3.93;65.88
65396;HTU21D;52004;45.136;39.010;2023-03-14T03:25:16;3.88;65.91
65396;HTU21D;52004;45.136;39.010;2023-03-14T03:27:44;3.88;65.97
65396;HTU21D;52004;45.136;39.010;2023-03-14T03:30:10;3.88;65.95
65396;HTU21D;52004;45.136;39.010;2023-03-14T03:32:36;3.88;66.05
65396;HTU21D;52004;45.136;39.010;2023-03-14T03:35:05;3.91;66.07
65396;HTU21D;52004;45.136;39.010;2023-03-14T03:37:33;3.93;66.05
65396;HTU21D;52004;45.136;39.010;2023-03-14T03:39:59;3.95;66.09
65396;HTU21D;52004;45.136;39.010;2023-03-14T03:42:26;3.97;66.05
65396;HTU21D;52004;45.136;39.010;2023-03-14T03:44:52;3.99;66.03
65396;HTU21D;52004;45.136;39.010;2023-03-14T03:47:18;3.99;66.04
65396;HTU21D;52004;45.136;39.010;2023-03-14T03:49:44;4.02;66.01
65396;HTU21D;52004;45.136;39.010;2023-03-14T03:52:10;4.04;66.02
65396;HTU21D;52004;45.136;39.010;2023-03-14T03:54:36;4.05;65.99
65396;HTU21D;52004;45.136;39.010;2023-03-14T03:57:02;4.07;65.97
65396;HTU21D;52004;45.136;39.010;2023-03-14T03:59:28;4.09;65.96
65396;HTU21D;52004;45.136;39.010;2023-03-14T04:01:54;4.12;65.98
65396;HTU21D;52004;45.136;39.010;2023-03-14T04:04:20;4.10;65.99
65396;HTU21D;52004;45.136;39.010;2023-03-14T04:09:55;4.15;66.11
65396;HTU21D;52004;45.136;39.010;2023-03-14T04:12:41;4.17;66.09
65396;HTU21D;52004;45.136;39.010;2023-03-14T04:15:11;4.20;66.11
65396;HTU21D;52004;45.136;39.010;2023-03-14T04:17:41;4.23;66.09
65396;HTU21D;52004;45.136;39.010;2023-03-14T04:20:07;4.27;66.11
65396;HTU21D;52004;45.136;39.010;2023-03-14T04:22:37;4.29;66.19
65396;HTU21D;52004;45.136;39.010;2023-03-14T04:25:03;0.00;66.20
65396;HTU21D;52004;45.136;39.010;2023-03-14T04:27:32;4.33;66.22
65396;HTU21D;52004;45.136;39.010;2023-03-14T04:29:59;4.35;66.18
65396;HTU21D;52004;45.136;39.010;2023-03-14T04:32:44;4.42;66.24
65396;HTU21D;52004;45.136;39.010;2023-03-14T04:35:10;4.43;66.18
65396;HTU21D;52004;45.136;39.010;2023-03-14T04:37:36;4.45;66.23
65396;HTU21D;52004;45.136;39.010;2023-03-14T04:40:03;4.45;66.22
65396;HTU21D;52004;45.136;39.010;2023-03-14T04:42:32;4.49;66.23
65396;HTU21D;52004;45.136;39.010;2023-03-14T04:44:58;4.52;66.17
65396;HTU21D;52004;45.136;39.010;2023-03-14T04:47:27;4.56;66.15
65396;HTU21D;52004;45.136;39.010;2023-03-14T04:49:53;4.54;66.27
65396;HTU21D;52004;45.136;39.010;2023-03-14T04:52:20;4.52;66.27
65396;HTU21D;52004;45.136;39.010;2023-03-14T04:54:46;4.53;66.33
65396;HTU21D;52004;45.136;39.010;2023-03-14T04:57:12;4.56;66.40
65396;HTU21D;52004;45.136;39.010;2023-03-14T04:59:39;4.57;66.36
65396;HTU21D;52004;45.136;39.010;2023-03-14T05:02:23;4.59;66.35
65396;HTU21D;52004;45.136;39.010;2023-03-14T05:05:08;4.62;66.32
65396;HTU21D;52004;45.136;39.010;2023-03-14T05:07:53;4.65;66.32
65396;HTU21D;52004;45.136;39.010;2023-03-14T05:10:37;4.68;66.30
65396;HTU21D;52004;45.136;39.010;2023-03-14T05:13:21;4.72;66.30
65396;HTU21D;52004;45.136;39.010;2023-03-14T05:16:13;4.73;66.30
65396;HTU21D;52004;45.136;39.010;2023-03-14T05:18:59;4.78;66.33
65396;HTU21D;52004;45.136;39.010;2023-03-14T05:21:55;4.81;66.30
65396;HTU21D;52004;45.136;39.010;2023-03-14T05:24:30;4.82;66.30
65396;HTU21D;52004;45.136;39.010;2023-03-14T05:27:02;4.83;66.30
65396;HTU21D;52004;45.136;39.010;2023-03-14T05:30:01;4.87;66.32
65396;HTU21D;52004;45.136;39.010;2023-03-14T05:32:26;4.90;66.29
65396;HTU21D;52004;45.136;39.010;2023-03-14T05:35:12;4.97;66.27
65396;HTU21D;52004;45.136;39.010;2023-03-14T05:37:58;5.03;66.22
65396;HTU21D;52004;45.136;39.010;2023-03-14T05:40:53;5.07;66.19
65396;HTU21D;52004;45.136;39.010;2023-03-14T05:43:33;5.12;66.17
65396;HTU21D;52004;45.136;39.010;2023-03-14T05:46:11;5.15;66.24
65396;HTU21D;52004;45.136;39.010;2023-03-14T05:49:00;5.16;66.24
65396;HTU21D;52004;45.136;39.010;2023-03-14T05:51:51;5.19;66.27
65396;HTU21D;52004;45.136;39.010;2023-03-14T05:54:25;5.24;66.28
65396;HTU21D;52004;45.136;39.010;2023-03-14T05:57:07;5.30;66.24
65396;HTU21D;52004;45.136;39.010;2023-03-14T05:59:32;5.35;66.22
65396;HTU21D;52004;45.136;39.010;2023-03-14T06:02:24;5.41;66.20
65396;HTU21D;52004;45.136;39.010;2023-03-14T06:04:59;5.45;66.15
65396;HTU21D;52004;45.136;39.010;2023-03-14T06:07:25;5.47;66.13
65396;HTU21D;52004;45.136;39.010;2023-03-14T06:09:51;5.50;66.14
65396;HTU21D;52004;45.136;39.010;2023-03-14T06:12:18;5.55;66.13
65396;HTU21D;52004;45.136;39.010;2023-03-14T06:14:45;5.62;66.13
65396;HTU21D;52004;45.136;39.010;2023-03-14T06:17:11;5.67;66.15
65396;HTU21D;52004;45.136;39.010;2023-03-14T06:19:57;5.79;66.20
65396;HTU21D;52004;45.136;39.010;2023-03-14T06:22:23;5.89;66.17
65396;HTU21D;52004;45.136;39.010;2023-03-14T06:24:49;5.96;66.04
65396;HTU21D;52004;45.136;39.010;2023-03-14T06:27:16;5.98;65.88
65396;HTU21D;52004;45.136;39.010;2023-03-14T06:29:43;6.00;65.88
65396;HTU21D;52004;45.136;39.010;2023-03-14T06:32:09;6.00;65.82
65396;HTU21D;52004;45.136;39.010;2023-03-14T06:34:36;6.01;65.82
65396;HTU21D;52004;45.136;39.010;2023-03-14T06:37:04;6.01;65.91
65396;HTU21D;52004;45.136;39.010;2023-03-14T06:39:30;6.07;65.85
65396;HTU21D;52004;45.136;39.010;2023-03-14T06:42:04;6.12;65.82
65396;HTU21D;52004;45.136;39.010;2023-03-14T06:44:31;6.13;65.72
65396;HTU21D;52004;45.136;39.010;2023-03-14T06:46:57;6.14;65.68
65396;HTU21D;52004;45.136;39.010;2023-03-14T06:49:24;6.14;65.68
65396;HTU21D;52004;45.136;39.010;2023-03-14T06:51:53;6.13;65.62
65396;HTU21D;52004;45.136;39.010;2023-03-14T06:54:19;6.10;65.68
65396;HTU21D;52004;45.136;39.010;2023-03-14T06:56:46;6.06;65.75
65396;HTU21D;52004;45.136;39.010;2023-03-14T06:59:12;6.06;65.82
65396;HTU21D;52004;45.136;39.010;2023-03-14T07:01:39;6.07;65.84
65396;HTU21D;52004;45.136;39.010;2023-03-14T07:04:09;6.07;65.88
65396;HTU21D;52004;45.136;39.010;2023-03-14T07:06:38;6.08;65.88
65396;HTU21D;52004;45.136;39.010;2023-03-14T07:09:05;6.12;65.88
65396;HTU21D;52004;45.136;39.010;2023-03-14T07:11:34;6.15;65.90
65396;HTU21D;52004;45.136;39.010;2023-03-14T07:14:00;6.21;65.95
65396;HTU21D;52004;45.136;39.010;2023-03-14T07:16:26;6.26;65.87
65396;HTU21D;52004;45.136;39.010;2023-03-14T07:18:54;6.29;65.81
65396;HTU21D;52004;45.136;39.010;2023-03-14T07:21:20;6.30;65.78
65396;HTU21D;52004;45.136;39.010;2023-03-14T07:23:46;6.30;65.82
65396;HTU21D;52004;45.136;39.010;2023-03-14T07:26:13;6.34;65.89
65396;HTU21D;52004;45.136;39.010;2023-03-14T07:28:44;6.42;65.90
65396;HTU21D;52004;45.136;39.010;2023-03-14T07:31:15;6.45;65.89
65396;HTU21D;52004;45.136;39.010;2023-03-14T07:33:41;6.50;65.84
65396;HTU21D;52004;45.136;39.010;2023-03-14T07:36:07;6.53;65.84
65396;HTU21D;52004;45.136;39.010;2023-03-14T07:38:33;6.56;65.82
65396;HTU21D;52004;45.136;39.010;2023-03-14T07:41:22;6.59;65.82
65396;HTU21D;52004;45.136;39.010;2023-03-14T07:44:08;6.67;65.80
65396;HTU21D;52004;45.136;39.010;2023-03-14T07:46:34;6.74;65.79
65396;HTU21D;52004;45.136;39.010;2023-03-14T07:49:00;6.80;65.75
65396;HTU21D;52004;45.136;39.010;2023-03-14T07:51:26;6.87;65.77
65396;HTU21D;52004;45.136;39.010;2023-03-14T07:53:51;6.94;65.72
65396;HTU21D;52004;45.136;39.010;2023-03-14T07:56:17;6.98;65.66
65396;HTU21D;52004;45.136;39.010;2023-03-14T07:58:43;7.01;65.68
65396;HTU21D;52004;45.136;39.010;2023-03-14T08:01:09;7.07;65.66
65396;HTU21D;52004;45.136;39.010;2023-03-14T08:03:35;7.11;65.66
65396;HTU21D;52004;45.136;39.010;2023-03-14T08:06:01;7.18;65.64
65396;HTU21D;52004;45.136;39.010;2023-03-14T08:08:26;7.26;65.62
65396;HTU21D;52004;45.136;39.010;2023-03-14T08:10:52;7.33;65.59
65396;HTU21D;52004;45.136;39.010;2023-03-14T08:13:18;7.42;65.56
65396;HTU21D;52004;45.136;39.010;2023-03-14T08:15:47;7.44;65.43
65396;HTU21D;52004;45.136;39.010;2023-03-14T08:18:12;7.44;65.39
65396;HTU21D;52004;45.136;39.010;2023-03-14T08:20:38;7.47;65.39
65396;HTU21D;52004;45.136;39.010;2023-03-14T08:23:04;7.48;65.38
65396;HTU21D;52004;45.136;39.010;2023-03-14T08:25:30;7.50;65.38
65396;HTU21D;52004;45.136;39.010;2023-03-14T08:27:56;7.53;65.32
65396;HTU21D;52004;45.136;39.010;2023-03-14T08:30:22;7.53;65.32
65396;HTU21D;52004;45.136;39.010;2023-03-14T08:32:48;7.54;65.34
65396;HTU21D;52004;45.136;39.010;2023-03-14T08:35:14;7.58;65.40
65396;HTU21D;52004;45.136;39.010;2023-03-14T08:37:40;7.63;65.38
65396;HTU21D;52004;45.136;39.010;2023-03-14T08:40:06;7.71;65.39
65396;HTU21D;52004;45.136;39.010;2023-03-14T08:42:34;7.78;65.40
65396;HTU21D;52004;45.136;39.010;2023-03-14T08:45:00;7.88;65.42
65396;HTU21D;52004;45.136;39.010;2023-03-14T08:47:26;7.99;65.46
65396;HTU21D;52004;45.136;39.010;2023-03-14T08:49:52;8.06;65.24
65396;HTU21D;52004;45.136;39.010;2023-03-14T08:52:17;8.09;65.07
65396;HTU21D;52004;45.136;39.010;2023-03-14T08:54:43;8.08;64.91
65396;HTU21D;52004;45.136;39.010;2023-03-14T08:57:09;8.07;64.94
65396;HTU21D;52004;45.136;39.010;2023-03-14T08:59:35;8.07;64.83
65396;HTU21D;52004;45.136;39.010;2023-03-14T09:02:01;8.05;64.85
65396;HTU21D;52004;45.136;39.010;2023-03-14T09:04:31;8.04;64.84
65396;HTU21D;52004;45.136;39.010;2023-03-14T09:06:57;8.03;64.82
65396;HTU21D;52004;45.136;39.010;2023-03-14T09:09:24;8.02;64.80
65396;HTU21D;52004;45.136;39.010;2023-03-14T09:11:50;7.99;64.74
65396;HTU21D;52004;45.136;39.010;2023-03-14T09:14:16;7.98;64.76
65396;HTU21D;52004;45.136;39.010;2023-03-14T09:16:41;7.93;64.76
65396;HTU21D;52004;45.136;39.010;2023-03-14T09:19:07;7.91;64.76
65396;HTU21D;52004;45.136;39.010;2023-03-14T09:21:33;7.88;64.76
65396;HTU21D;52004;45.136;39.010;2023-03-14T09:23:59;7.83;64.79
65396;HTU21D;52004;45.136;39.010;2023-03-14T09:26:24;7.78;64.80
65396;HTU21D;52004;45.136;39.010;2023-03-14T09:28:50;7.75;64.83
65396;HTU21D;52004;45.136;39.010;2023-03-14T09:31:16;7.69;64.88
65396;HTU21D;52004;45.136;39.010;2023-03-14T09:33:42;7.62;65.02
65396;HTU21D;52004;45.136;39.010;2023-03-14T09:36:08;7.57;65.10
65396;HTU21D;52004;45.136;39.010;2023-03-14T09:38:34;7.53;65.09
65396;HTU21D;52004;45.136;39.010;2023-03-14T09:41:00;7.50;65.14
65396;HTU21D;52004;45.136;39.010;2023-03-14T09:43:28;7.50;65.21
65396;HTU21D;52004;45.136;39.010;2023-03-14T09:45:54;0.00;65.23
65396;HTU21D;52004;45.136;39.010;2023-03-14T09:48:21;7.53;65.27
65396;HTU21D;52004;45.136;39.010;2023-03-14T09:50:54;7.55;65.29
65396;HTU21D;52004;45.136;39.010;2023-03-14T09:53:22;7.59;65.28
65396;HTU21D;52004;45.136;39.010;2023-03-14T09:55:50;7.58;65.30
65396;HTU21D;52004;45.136;39.010;2023-03-14T09:58:16;7.60;65.35
65396;HTU21D;52004;45.136;39.010;2023-03-14T10:00:43;7.63;65.38
65396;HTU21D;52004;45.136;39.010;2023-03-14T10:05:38;7.73;65.38
65396;HTU21D;52004;45.136;39.010;2023-03-14T10:08:04;7.76;65.36
65396;HTU21D;52004;45.136;39.010;2023-03-14T10:10:30;7.84;65.33
65396;HTU21D;52004;45.136;39.010;2023-03-14T10:13:05;7.89;65.33
65396;HTU21D;52004;45.136;39.010;2023-03-14T10:15:36;7.96;65.27
65396;HTU21D;52004;45.136;39.010;2023-03-14T10:18:03;8.02;65.24
65396;HTU21D;52004;45.136;39.010;2023-03-14T10:20:34;8.07;65.23
65396;HTU21D;52004;45.136;39.010;2023-03-14T10:25:32;8.26;65.21
65396;HTU21D;52004;45.136;39.010;2023-03-14T10:27:59;8.33;65.11
65396;HTU21D;52004;45.136;39.010;2023-03-14T10:32:56;8.39;64.93
65396;HTU21D;52004;45.136;39.010;2023-03-14T10:35:22;8.41;64.82
65396;HTU21D;52004;45.136;39.010;2023-03-14T10:38:01;8.41;64.77
65396;HTU21D;52004;45.136;39.010;2023-03-14T10:40:29;8.41;64.76
65396;HTU21D;52004;45.136;39.010;2023-03-14T10:42:57;8.42;64.68
65396;HTU21D;52004;45.136;39.010;2023-03-14T10:51:05;8.37;64.67
65396;HTU21D;52004;45.136;39.010;2023-03-14T10:53:38;8.36;64.60
65396;HTU21D;52004;45.136;39.010;2023-03-14T10:56:05;8.34;64.67
65396;HTU21D;52004;45.136;39.010;2023-03-14T10:58:33;8.34;64.67
65396;HTU21D;52004;45.136;39.010;2023-03-14T11:03:28;8.41;64.72
65396;HTU21D;52004;45.136;39.010;2023-03-14T11:06:03;8.42;64.58
65396;HTU21D;52004;45.136;39.010;2023-03-14T11:11:13;8.41;64.56
65396;HTU21D;52004;45.136;39.010;2023-03-14T11:16:22;8.47;64.53
65396;HTU21D;52004;45.136;39.010;2023-03-14T11:21:58;8.50;64.46
65396;HTU21D;52004;45.136;39.010;2023-03-14T11:24:33;8.52;64.44
65396;HTU21D;52004;45.136;39.010;2023-03-14T11:29:55;8.56;64.37
65396;HTU21D;52004;45.136;39.010;2023-03-14T11:35:17;8.55;64.34
65396;HTU21D;52004;45.136;39.010;2023-03-14T11:37:46;8.57;64.40
65396;HTU21D;52004;45.136;39.010;2023-03-14T11:40:14;8.59;64.48
65396;HTU21D;52004;45.136;39.010;2023-03-14T11:42:43;8.66;64.50
65396;HTU21D;52004;45.136;39.010;2023-03-14T11:45:29;8.73;64.47
65396;HTU21D;52004;45.136;39.010;2023-03-14T11:48:05;8.80;64.47
65396;HTU21D;52004;45.136;39.010;2023-03-14T11:50:33;8.89;64.49
65396;HTU21D;52004;45.136;39.010;2023-03-14T11:53:04;8.97;64.40
65396;HTU21D;52004;45.136;39.010;2023-03-14T11:55:37;9.04;64.34
65396;HTU21D;52004;45.136;39.010;2023-03-14T12:01:13;9.15;64.33
65396;HTU21D;52004;45.136;39.010;2023-03-14T12:03:45;9.22;64.29
65396;HTU21D;52004;45.136;39.010;2023-03-14T12:09:00;9.32;64.22
65396;HTU21D;52004;45.136;39.010;2023-03-14T12:13:58;9.37;64.07
65396;HTU21D;52004;45.136;39.010;2023-03-14T12:18:52;9.36;63.98
65396;HTU21D;52004;45.136;39.010;2023-03-14T12:21:18;9.34;63.97
65396;HTU21D;52004;45.136;39.010;2023-03-14T12:23:53;9.34;63.97
65396;HTU21D;52004;45.136;39.010;2023-03-14T12:26:20;9.31;63.95
65396;HTU21D;52004;45.136;39.010;2023-03-14T12:39:25;9.34;64.00
65396;HTU21D;52004;45.136;39.010;2023-03-14T12:42:03;9.35;63.95
65396;HTU21D;52004;45.136;39.010;2023-03-14T12:47:01;9.38;64.01
65396;HTU21D;52004;45.136;39.010;2023-03-14T12:49:39;9.42;64.00
65396;HTU21D;52004;45.136;39.010;2023-03-14T12:52:10;9.48;64.00
65396;HTU21D;52004;45.136;39.010;2023-03-14T12:54:40;9.50;63.99
65396;HTU21D;52004;45.136;39.010;2023-03-14T12:59:58;9.57;63.98
65396;HTU21D;52004;45.136;39.010;2023-03-14T13:02:29;9.61;63.98
65396;HTU21D;52004;45.136;39.010;2023-03-14T13:07:32;9.72;64.01
65396;HTU21D;52004;45.136;39.010;2023-03-14T13:12:47;9.85;64.10
65396;HTU21D;52004;45.136;39.010;2023-03-14T13:15:15;9.93;64.11
65396;HTU21D;52004;45.136;39.010;2023-03-14T13:17:42;10.03;64.14
65396;HTU21D;52004;45.136;39.010;2023-03-14T13:20:11;10.10;64.14
65396;HTU21D;52004;45.136;39.010;2023-03-14T13:22:38;10.19;64.15
65396;HTU21D;52004;45.136;39.010;2023-03-14T13:25:09;10.25;64.06
65396;HTU21D;52004;45.136;39.010;2023-03-14T13:27:36;10.31;63.94
65396;HTU21D;52004;45.136;39.010;2023-03-14T13:30:16;10.35;63.85
65396;HTU21D;52004;45.136;39.010;2023-03-14T13:32:43;10.38;63.76
65396;HTU21D;52004;45.136;39.010;2023-03-14T13:35:16;10.37;63.74
65396;HTU21D;52004;45.136;39.010;2023-03-14T13:37:42;10.38;63.69
65396;HTU21D;52004;45.136;39.010;2023-03-14T13:40:17;10.37;63.65
65396;HTU21D;52004;45.136;39.010;2023-03-14T13:42:43;10.37;63.63
65396;HTU21D;52004;45.136;39.010;2023-03-14T13:45:12;10.35;63.58
65396;HTU21D;52004;45.136;39.010;2023-03-14T13:47:38;10.31;63.47
65396;HTU21D;52004;45.136;39.010;2023-03-14T13:50:04;10.28;63.50
65396;HTU21D;52004;45.136;39.010;2023-03-14T13:52:36;10.24;63.47
65396;HTU21D;52004;45.136;39.010;2023-03-14T13:55:03;10.22;63.50
65396;HTU21D;52004;45.136;39.010;2023-03-14T13:57:43;10.21;63.50
65396;HTU21D;52004;45.136;39.010;2023-03-14T14:00:16;10.20;63.50
65396;HTU21D;52004;45.136;39.010;2023-03-14T14:02:43;10.19;63.44
65396;HTU21D;52004;45.136;39.010;2023-03-14T14:05:10;10.16;63.41
65396;HTU21D;52004;45.136;39.010;2023-03-14T14:07:36;10.14;63.39
65396;HTU21D;52004;45.136;39.010;2023-03-14T14:10:03;10.11;63.40
65396;HTU21D;52004;45.136;39.010;2023-03-14T14:12:30;10.09;63.44
65396;HTU21D;52004;45.136;39.010;2023-03-14T14:15:04;10.07;63.44
65396;HTU21D;52004;45.136;39.010;2023-03-14T14:17:36;10.05;63.44
65396;HTU21D;52004;45.136;39.010;2023-03-14T14:20:04;10.03;63.47
65396;HTU21D;52004;45.136;39.010;2023-03-14T14:22:31;10.01;63.47
65396;HTU21D;52004;45.136;39.010;2023-03-14T14:24:57;10.00;63.44
65396;HTU21D;52004;45.136;39.010;2023-03-14T14:27:26;9.99;63.44
65396;HTU21D;52004;45.136;39.010;2023-03-14T14:30:35;9.97;63.43
65396;HTU21D;52004;45.136;39.010;2023-03-14T14:32:42;9.95;63.45
65396;HTU21D;52004;45.136;39.010;2023-03-14T14:35:09;9.92;63.46
65396;HTU21D;52004;45.136;39.010;2023-03-14T14:37:42;9.92;63.47
65396;HTU21D;52004;45.136;39.010;2023-03-14T14:40:25;9.89;63.49
65396;HTU21D;52004;45.136;39.010;2023-03-14T14:42:51;9.86;63.54
65396;HTU21D;52004;45.136;39.010;2023-03-14T14:45:19;9.85;63.57
65396;HTU21D;52004;45.136;39.010;2023-03-14T14:47:55;9.85;63.59
65396;HTU21D;52004;45.136;39.010;2023-03-14T14:52:58;9.84;63.60
65396;HTU21D;52004;45.136;39.010;2023-03-14T14:55:28;9.83;63.60
65396;HTU21D;52004;45.136;39.010;2023-03-14T14:57:55;9.82;63.64
65396;HTU21D;52004;45.136;39.010;2023-03-14T15:00:24;9.83;63.63
65396;HTU21D;52004;45.136;39.010;2023-03-14T15:03:12;9.82;63.61
65396;HTU21D;52004;45.136;39.010;2023-03-14T15:05:38;9.82;63.63
65396;HTU21D;52004;45.136;39.010;2023-03-14T15:08:08;9.82;63.61
65396;HTU21D;52004;45.136;39.010;2023-03-14T15:10:34;9.82;63.62
65396;HTU21D;52004;45.136;39.010;2023-03-14T15:13:00;9.82;63.62
65396;HTU21D;52004;45.136;39.010;2023-03-14T15:15:25;9.80;63.60
65396;HTU21D;52004;45.136;39.010;2023-03-14T15:17:51;9.80;63.62
65396;HTU21D;52004;45.136;39.010;2023-03-14T15:20:17;9.80;63.63
65396;HTU21D;52004;45.136;39.010;2023-03-14T15:22:45;9.79;63.60
65396;HTU21D;52004;45.136;39.010;2023-03-14T15:25:11;9.78;63.61
65396;HTU21D;52004;45.136;39.010;2023-03-14T15:27:37;9.78;63.63
65396;HTU21D;52004;45.136;39.010;2023-03-14T15:30:12;9.78;63.63
65396;HTU21D;52004;45.136;39.010;2023-03-14T15:32:38;9.77;63.62
65396;HTU21D;52004;45.136;39.010;2023-03-14T15:35:04;9.77;63.62
65396;HTU21D;52004;45.136;39.010;2023-03-14T15:37:30;9.75;63.66
65396;HTU21D;52004;45.136;39.010;2023-03-14T15:39:56;9.72;63.68
65396;HTU21D;52004;45.136;39.010;2023-03-14T15:42:24;9.74;63.66
65396;HTU21D;52004;45.136;39.010;2023-03-14T15:44:50;9.72;63.67
65396;HTU21D;52004;45.136;39.010;2023-03-14T15:47:17;9.71;63.73
65396;HTU21D;52004;45.136;39.010;2023-03-14T15:49:43;9.70;63.80
65396;HTU21D;52004;45.136;39.010;2023-03-14T15:52:09;9.70;63.79
65396;HTU21D;52004;45.136;39.010;2023-03-14T15:54:35;9.68;63.82
65396;HTU21D;52004;45.136;39.010;2023-03-14T15:57:02;9.67;63.84
65396;HTU21D;52004;45.136;39.010;2023-03-14T15:59:35;9.66;63.86
65396;HTU21D;52004;45.136;39.010;2023-03-14T16:02:01;9.68;63.82
65396;HTU21D;52004;45.136;39.010;2023-03-14T16:04:27;9.67;63.81
65396;HTU21D;52004;45.136;39.010;2023-03-14T16:06:52;9.67;63.82
65396;HTU21D;52004;45.136;39.010;2023-03-14T16:09:18;9.66;63.82
65396;HTU21D;52004;45.136;39.010;2023-03-14T16:11:45;9.66;63.84
65396;HTU21D;52004;45.136;39.010;2023-03-14T16:14:11;9.65;63.85
65396;HTU21D;52004;45.136;39.010;2023-03-14T16:16:37;9.64;63.85
65396;HTU21D;52004;45.136;39.010;2023-03-14T16:19:05;9.64;63.82
65396;HTU21D;52004;45.136;39.010;2023-03-14T16:21:31;9.63;63.80
65396;HTU21D;52004;45.136;39.010;2023-03-14T16:23:58;9.63;63.79
65396;HTU21D;52004;45.136;39.010;2023-03-14T16:26:25;9.61;63.82
65396;HTU21D;52004;45.136;39.010;2023-03-14T16:28:51;9.61;63.87
65396;HTU21D;52004;45.136;39.010;2023-03-14T16:31:18;9.59;63.88
65396;HTU21D;52004;45.136;39.010;2023-03-14T16:33:45;9.56;63.89
65396;HTU21D;52004;45.136;39.010;2023-03-14T16:36:12;9.57;63.89
65396;HTU21D;52004;45.136;39.010;2023-03-14T16:38:39;9.55;63.89
65396;HTU21D;52004;45.136;39.010;2023-03-14T16:41:06;9.56;63.89
65396;HTU21D;52004;45.136;39.010;2023-03-14T16:43:32;9.55;63.92